createdAt,value
2023-03-07T00:01:27.838Z,21.00
2023-03-07T00:03:56.876Z,22.50
2023-03-07T00:06:26.034Z,21.87
2023-03-07T00:08:56.403Z,18.50
2023-03-07T00:11:24.737Z,20.73
2023-03-07T00:13:55.579Z,21.53
2023-03-07T00:16:25.484Z,20.23
2023-03-07T00:18:55.393Z,22.83
2023-03-07T00:21:23.924Z,21.67
2023-03-07T00:23:54.241Z,19.70
2023-03-07T00:26:24.980Z,18.17
2023-03-07T00:28:56.551Z,19.03
2023-03-07T00:31:25.392Z,19.90
2023-03-07T00:33:53.606Z,19.90
2023-03-07T00:36:24.080Z,19.00
2023-03-07T00:38:53.170Z,19.40
2023-03-07T00:41:24.005Z,19.23
2023-03-07T00:43:52.805Z,19.80
2023-03-07T00:46:25.613Z,20.07
2023-03-07T00:48:54.452Z,17.63
2023-03-07T00:51:25.122Z,17.63
2023-03-07T00:53:53.432Z,17.20
2023-03-07T00:56:24.352Z,19.07
2023-03-07T00:58:53.346Z,17.73
2023-03-07T01:01:25.643Z,18.27
2023-03-07T01:03:55.680Z,16.80
2023-03-07T01:06:27.139Z,18.50
2023-03-07T01:08:57.767Z,16.83
2023-03-07T01:11:26.821Z,17.27
2023-03-07T01:13:57.399Z,17.83
2023-03-07T01:16:30.229Z,17.90
2023-03-07T01:19:01.503Z,17.67
2023-03-07T01:21:33.340Z,19.20
2023-03-07T01:24:01.522Z,19.57
2023-03-07T01:26:32.760Z,18.20
2023-03-07T01:29:04.085Z,18.23
2023-03-07T01:31:33.678Z,20.17
2023-03-07T01:34:03.299Z,20.03
2023-03-07T01:36:34.726Z,18.03
2023-03-07T01:39:06.621Z,18.97
2023-03-07T01:41:36.769Z,20.40
2023-03-07T01:44:15.747Z,19.33
2023-03-07T01:46:53.070Z,19.43
2023-03-07T01:49:27.972Z,20.57
2023-03-07T01:52:04.072Z,20.33
2023-03-07T01:54:35.274Z,20.17
2023-03-07T01:57:05.134Z,17.87
2023-03-07T01:59:37.788Z,19.27
2023-03-07T02:02:12.972Z,18.80
2023-03-07T02:04:46.329Z,18.87
2023-03-07T02:07:16.883Z,18.83
2023-03-07T02:09:48.773Z,18.63
2023-03-07T02:12:17.450Z,20.03
2023-03-07T02:14:49.847Z,20.50
2023-03-07T02:17:20.445Z,17.90
2023-03-07T02:20:11.632Z,21.47
2023-03-07T02:22:40.679Z,18.33
2023-03-07T02:25:19.300Z,18.20
2023-03-07T02:27:51.262Z,19.60
2023-03-07T02:30:19.812Z,19.47
2023-03-07T02:32:47.968Z,18.83
2023-03-07T02:35:19.979Z,18.73
2023-03-07T02:37:52.825Z,17.90
2023-03-07T02:40:24.528Z,19.47
2023-03-07T02:42:58.331Z,18.00
2023-03-07T02:45:26.630Z,20.67
2023-03-07T02:47:54.708Z,18.50
2023-03-07T02:50:22.821Z,19.87
2023-03-07T02:52:51.032Z,18.93
2023-03-07T02:55:19.350Z,17.53
2023-03-07T02:57:47.466Z,18.70
2023-03-07T03:00:18.010Z,19.07
2023-03-07T03:02:46.140Z,17.60
2023-03-07T03:05:14.621Z,17.53
2023-03-07T03:07:42.744Z,17.33
2023-03-07T03:10:12.131Z,18.50
2023-03-07T03:12:40.302Z,16.47
2023-03-07T03:15:10.386Z,17.97
2023-03-07T03:17:40.410Z,17.87
2023-03-07T03:20:12.719Z,19.03
2023-03-07T03:22:41.522Z,18.53
2023-03-07T03:25:12.330Z,16.60
2023-03-07T03:27:42.080Z,17.10
2023-03-07T03:30:13.947Z,16.37
2023-03-07T03:32:43.708Z,16.17
2023-03-07T03:35:12.509Z,16.47
2023-03-07T03:37:40.792Z,16.97
2023-03-07T03:40:14.543Z,16.40
2023-03-07T03:42:43.523Z,15.93
2023-03-07T03:45:14.877Z,16.70
2023-03-07T03:47:44.412Z,16.27
2023-03-07T03:50:13.283Z,16.23
2023-03-07T03:52:41.502Z,16.53
2023-03-07T03:55:10.772Z,15.77
2023-03-07T03:57:38.883Z,14.43
2023-03-07T04:00:10.599Z,15.93
2023-03-07T04:02:39.038Z,14.70
2023-03-07T04:05:10.120Z,15.97
2023-03-07T04:07:38.252Z,16.13
2023-03-07T04:10:08.164Z,16.40
2023-03-07T04:12:36.860Z,15.37
2023-03-07T04:15:05.991Z,17.57
2023-03-07T04:17:34.188Z,16.20
2023-03-07T04:20:02.380Z,14.77
2023-03-07T04:22:31.841Z,15.37
2023-03-07T04:24:59.933Z,15.87
2023-03-07T04:27:28.067Z,14.80
2023-03-07T04:29:56.247Z,15.60
2023-03-07T04:32:24.819Z,15.83
2023-03-07T04:34:53.032Z,15.30
2023-03-07T04:37:21.174Z,14.33
2023-03-07T04:39:51.400Z,13.73
2023-03-07T04:42:19.570Z,14.70
2023-03-07T04:44:47.675Z,14.67
2023-03-07T04:47:15.846Z,15.97
2023-03-07T04:49:43.938Z,15.37
2023-03-07T04:52:12.159Z,15.70
2023-03-07T04:54:40.829Z,14.23
2023-03-07T04:57:10.467Z,14.13
2023-03-07T04:59:39.520Z,14.90
2023-03-07T05:02:08.377Z,13.77
2023-03-07T05:04:36.504Z,13.47
2023-03-07T05:07:05.449Z,14.07
2023-03-07T05:09:33.595Z,13.33
2023-03-07T05:12:01.969Z,14.87
2023-03-07T05:14:31.614Z,15.10
2023-03-07T05:16:59.741Z,15.27
2023-03-07T05:19:27.951Z,15.17
2023-03-07T05:21:56.054Z,13.87
2023-03-07T05:24:24.365Z,14.97
2023-03-07T05:26:52.507Z,13.23
2023-03-07T05:29:20.668Z,12.97
2023-03-07T05:31:50.108Z,12.23
2023-03-07T05:34:18.668Z,11.80
2023-03-07T05:36:47.085Z,11.97
2023-03-07T05:39:16.122Z,12.77
2023-03-07T05:41:44.215Z,15.07
2023-03-07T05:44:12.368Z,12.13
2023-03-07T05:46:40.694Z,11.57
2023-03-07T05:49:10.246Z,10.37
2023-03-07T05:51:38.376Z,10.10
2023-03-07T05:54:06.859Z,9.50
2023-03-07T05:56:34.965Z,10.57
2023-03-07T05:59:03.073Z,9.83
2023-03-07T06:01:31.252Z,8.87
2023-03-07T06:03:59.405Z,9.77
2023-03-07T06:06:29.070Z,10.97
2023-03-07T06:08:57.183Z,7.80
2023-03-07T06:11:25.693Z,8.27
2023-03-07T06:13:54.177Z,8.33
2023-03-07T06:16:22.390Z,8.77
2023-03-07T06:18:50.514Z,10.03
2023-03-07T06:21:20.294Z,8.70
2023-03-07T06:23:49.788Z,8.50
2023-03-07T06:26:18.146Z,8.87
2023-03-07T06:28:46.268Z,9.83
2023-03-07T06:31:17.371Z,8.77
2023-03-07T06:33:47.501Z,8.33
2023-03-07T06:36:18.772Z,7.83
2023-03-07T06:38:47.448Z,8.57
2023-03-07T06:41:17.353Z,8.80
2023-03-07T06:43:45.770Z,9.67
2023-03-07T06:46:13.896Z,8.07
2023-03-07T06:48:42.059Z,7.17
2023-03-07T06:51:11.709Z,7.60
2023-03-07T06:53:41.064Z,7.07
2023-03-07T06:56:09.377Z,7.90
2023-03-07T06:58:38.873Z,7.87
2023-03-07T07:01:07.215Z,6.93
2023-03-07T07:03:35.516Z,6.73
2023-03-07T07:06:04.106Z,7.53
2023-03-07T07:08:32.394Z,6.20
2023-03-07T07:11:00.859Z,6.93
2023-03-07T07:13:28.929Z,8.50
2023-03-07T07:16:01.388Z,7.23
2023-03-07T07:18:29.506Z,6.90
2023-03-07T07:20:57.863Z,6.57
2023-03-07T07:23:27.065Z,7.13
2023-03-07T07:25:55.257Z,6.07
2023-03-07T07:28:23.695Z,7.07
2023-03-07T07:30:52.255Z,7.70
2023-03-07T07:33:21.831Z,7.07
2023-03-07T07:35:50.000Z,6.10
2023-03-07T07:38:18.150Z,6.47
2023-03-07T07:40:46.259Z,6.40
2023-03-07T07:43:18.008Z,6.43
2023-03-07T07:45:46.184Z,5.83
2023-03-07T07:48:14.436Z,8.03
2023-03-07T07:50:43.910Z,5.77
2023-03-07T07:53:12.382Z,6.83
2023-03-07T07:55:40.564Z,6.90
2023-03-07T07:58:08.903Z,5.67
2023-03-07T08:00:39.241Z,6.00
2023-03-07T08:03:07.765Z,5.97
2023-03-07T08:05:35.958Z,7.07
2023-03-07T08:08:05.787Z,5.60
2023-03-07T08:10:33.911Z,6.03
2023-03-07T08:13:02.141Z,5.40
2023-03-07T08:15:30.315Z,4.53
2023-03-07T08:18:00.072Z,5.03
2023-03-07T08:20:28.303Z,5.17
2023-03-07T08:22:56.941Z,5.43
2023-03-07T08:25:26.786Z,5.60
2023-03-07T08:27:57.073Z,4.83
2023-03-07T08:30:28.213Z,5.03
2023-03-07T08:32:58.046Z,4.93
2023-03-07T08:35:29.709Z,4.43
2023-03-07T08:38:00.678Z,5.07
2023-03-07T08:40:31.958Z,6.63
2023-03-07T08:43:00.570Z,4.87
2023-03-07T08:45:28.790Z,4.67
2023-03-07T08:47:58.035Z,4.47
2023-03-07T08:50:29.530Z,4.87
2023-03-07T08:52:58.967Z,5.40
2023-03-07T08:55:27.104Z,5.30
2023-03-07T08:57:56.567Z,4.77
2023-03-07T09:00:25.131Z,6.10
2023-03-07T09:02:54.292Z,6.63
2023-03-07T09:05:22.656Z,5.80
2023-03-07T09:07:50.770Z,5.27
2023-03-07T09:10:20.871Z,5.67
2023-03-07T09:12:51.062Z,5.03
2023-03-07T09:15:20.637Z,5.30
2023-03-07T09:17:48.720Z,5.63
2023-03-07T09:20:17.952Z,5.27
2023-03-07T09:22:46.678Z,6.80
2023-03-07T09:25:15.406Z,6.10
2023-03-07T09:27:45.609Z,5.97
2023-03-07T09:30:15.630Z,6.80
2023-03-07T09:32:45.148Z,6.60
2023-03-07T09:35:13.548Z,7.80
2023-03-07T09:37:41.707Z,6.57
2023-03-07T09:40:19.876Z,6.30
2023-03-07T09:43:02.555Z,6.63
2023-03-07T09:45:46.781Z,6.47
2023-03-07T09:49:08.256Z,6.03
2023-03-07T09:51:40.391Z,6.13
2023-03-07T09:54:16.074Z,6.03
2023-03-07T09:56:48.479Z,7.57
2023-03-07T09:59:25.054Z,5.87
2023-03-07T10:02:06.599Z,7.50
2023-03-07T10:04:47.971Z,6.07
2023-03-07T10:07:20.615Z,7.07
2023-03-07T10:09:51.875Z,6.33
2023-03-07T10:12:57.403Z,8.60
2023-03-07T10:15:45.541Z,7.57
2023-03-07T10:18:51.528Z,9.20
2023-03-07T10:21:33.829Z,6.97
2023-03-07T10:24:47.958Z,8.27
2023-03-07T10:27:17.266Z,7.07
2023-03-07T10:29:50.198Z,8.20
2023-03-07T10:32:27.254Z,8.03
2023-03-07T10:35:03.103Z,7.53
2023-03-07T10:37:50.149Z,8.07
2023-03-07T10:40:31.382Z,8.50
2023-03-07T10:43:00.823Z,7.60
2023-03-07T10:45:32.908Z,7.27
2023-03-07T10:48:09.193Z,9.57
2023-03-07T10:50:46.669Z,7.57
2023-03-07T10:53:26.228Z,7.90
2023-03-07T10:56:10.542Z,8.00
2023-03-07T10:58:38.805Z,8.13
2023-03-07T11:01:19.414Z,9.20
2023-03-07T11:03:58.194Z,7.97
2023-03-07T11:06:32.376Z,8.03
2023-03-07T11:09:23.234Z,9.50
2023-03-07T11:11:59.107Z,8.23
2023-03-07T11:14:29.243Z,8.37
2023-03-07T11:17:00.669Z,8.03
2023-03-07T11:19:35.820Z,8.67
2023-03-07T11:22:17.182Z,7.43
2023-03-07T11:24:57.260Z,7.20
2023-03-07T11:27:34.015Z,7.63
2023-03-07T11:30:29.827Z,7.03
2023-03-07T11:33:15.763Z,7.40
2023-03-07T11:35:59.997Z,8.47
2023-03-07T11:38:47.209Z,6.47
2023-03-07T11:41:25.466Z,6.50
2023-03-07T11:44:20.205Z,8.30
2023-03-07T11:47:21.038Z,7.13
2023-03-07T11:50:09.276Z,8.07
2023-03-07T11:53:01.116Z,6.73
2023-03-07T11:55:37.371Z,8.03
2023-03-07T11:58:42.602Z,6.93
2023-03-07T12:01:29.895Z,7.23
2023-03-07T12:04:38.281Z,8.67
2023-03-07T12:07:17.553Z,7.07
2023-03-07T12:09:55.580Z,7.63
2023-03-07T12:12:46.058Z,7.30
2023-03-07T12:15:34.079Z,6.13
2023-03-07T12:18:25.638Z,6.97
2023-03-07T12:21:13.119Z,7.47
2023-03-07T12:23:48.384Z,9.27
2023-03-07T12:26:25.055Z,7.87
2023-03-07T12:29:02.084Z,6.83
2023-03-07T12:31:37.398Z,7.73
2023-03-07T12:34:14.145Z,7.60
2023-03-07T12:36:47.369Z,6.97
2023-03-07T12:39:23.219Z,5.70
2023-03-07T12:42:04.493Z,8.47
2023-03-07T12:44:42.828Z,7.30
2023-03-07T12:47:23.008Z,5.83
2023-03-07T12:50:03.359Z,6.20
2023-03-07T12:52:45.823Z,5.87
2023-03-07T12:55:25.556Z,6.33
2023-03-07T12:58:05.853Z,7.83
2023-03-07T13:00:41.643Z,6.67
2023-03-07T13:03:23.853Z,7.80
2023-03-07T13:05:52.641Z,5.77
2023-03-07T13:08:25.509Z,6.27
2023-03-07T13:10:53.851Z,6.43
2023-03-07T13:13:54.107Z,5.93
2023-03-07T13:16:43.363Z,6.23
2023-03-07T13:19:56.602Z,7.57
2023-03-07T13:23:14.888Z,7.20
2023-03-07T13:25:57.889Z,5.53
2023-03-07T13:28:53.401Z,6.57
2023-03-07T13:31:54.702Z,4.90
2023-03-07T13:34:52.307Z,7.63
2023-03-07T13:38:26.358Z,8.60
2023-03-07T13:40:58.494Z,6.73
2023-03-07T13:44:01.338Z,6.43
2023-03-07T13:46:54.101Z,6.47
2023-03-07T13:49:45.921Z,6.17
2023-03-07T13:52:30.293Z,5.93
2023-03-07T13:55:04.241Z,7.17
2023-03-07T13:57:41.717Z,5.70
2023-03-07T14:00:42.810Z,6.30
2023-03-07T14:03:29.926Z,7.13
2023-03-07T14:06:09.310Z,5.53
2023-03-07T14:08:39.192Z,6.17
2023-03-07T14:11:21.370Z,6.27
2023-03-07T14:14:23.703Z,7.03
2023-03-07T14:17:40.632Z,6.17
2023-03-07T14:20:20.604Z,5.73
2023-03-07T14:23:16.760Z,6.40
2023-03-07T14:25:52.562Z,6.50
2023-03-07T14:28:26.914Z,5.03
2023-03-07T14:30:58.512Z,3.60
2023-03-07T14:33:32.623Z,2.00
2023-03-07T14:36:01.367Z,1.87
2023-03-07T14:38:29.892Z,2.20
2023-03-07T14:41:21.906Z,2.67
2023-03-07T14:44:11.981Z,4.43
2023-03-07T14:46:59.390Z,2.60
2023-03-07T14:49:41.548Z,2.17
2023-03-07T14:52:28.280Z,1.70
2023-03-07T14:55:02.892Z,1.97
2023-03-07T14:57:35.615Z,2.40
2023-03-07T15:00:13.998Z,2.53
2023-03-07T15:02:48.550Z,2.37
2023-03-07T15:05:20.205Z,2.17
2023-03-07T15:07:48.787Z,2.03
2023-03-07T15:10:21.428Z,2.53
2023-03-07T15:12:54.876Z,3.90
2023-03-07T15:15:33.782Z,3.43
2023-03-07T15:18:07.759Z,3.40
2023-03-07T15:20:36.295Z,5.13
2023-03-07T15:23:09.265Z,5.33
2023-03-07T15:25:39.676Z,4.13
2023-03-07T15:28:19.984Z,4.07
2023-03-07T15:30:53.820Z,4.13
2023-03-07T15:33:27.460Z,4.27
2023-03-07T15:36:18.596Z,2.90
2023-03-07T15:38:51.266Z,3.53
2023-03-07T15:41:35.841Z,2.00
2023-03-07T15:44:21.372Z,2.47
2023-03-07T15:46:54.105Z,2.10
2023-03-07T15:49:27.428Z,1.80
2023-03-07T15:51:59.884Z,2.93
2023-03-07T15:54:39.658Z,2.50
2023-03-07T15:57:17.922Z,2.60
2023-03-07T15:59:55.145Z,1.80
2023-03-07T16:02:46.983Z,3.17
2023-03-07T16:05:37.184Z,2.57
2023-03-07T16:08:13.903Z,2.87
2023-03-07T16:10:52.125Z,3.17
2023-03-07T16:13:24.321Z,4.27
2023-03-07T16:16:05.655Z,3.67
2023-03-07T16:18:35.775Z,4.80
2023-03-07T16:21:03.974Z,3.30
2023-03-07T16:23:32.539Z,3.10
2023-03-07T16:26:05.355Z,3.37
2023-03-07T16:28:34.437Z,3.20
2023-03-07T16:31:02.601Z,4.00
2023-03-07T16:33:30.763Z,2.97
2023-03-07T16:36:00.263Z,2.50
2023-03-07T16:38:28.577Z,2.90
2023-03-07T16:40:58.478Z,3.20
2023-03-07T16:43:36.489Z,3.07
2023-03-07T16:46:07.096Z,4.03
2023-03-07T16:48:36.166Z,3.50
2023-03-07T16:51:07.065Z,3.43
2023-03-07T16:53:35.189Z,3.23
2023-03-07T16:56:03.269Z,5.23
2023-03-07T16:58:34.952Z,5.13
2023-03-07T17:01:03.168Z,3.83
2023-03-07T17:03:31.434Z,5.10
2023-03-07T17:06:00.369Z,4.60
2023-03-07T17:08:29.849Z,4.57
2023-03-07T17:10:58.504Z,3.93
2023-03-07T17:13:26.725Z,3.33
2023-03-07T17:15:54.948Z,4.50
2023-03-07T17:18:23.247Z,3.63
2023-03-07T17:20:52.049Z,3.07
2023-03-07T17:23:22.058Z,3.90
2023-03-07T17:25:51.697Z,7.47
2023-03-07T17:28:20.570Z,6.93
2023-03-07T17:30:49.873Z,5.27
2023-03-07T17:33:19.562Z,6.10
2023-03-07T17:35:47.768Z,6.70
2023-03-07T17:38:15.949Z,7.97
2023-03-07T17:40:44.768Z,7.27
2023-03-07T17:43:14.814Z,9.77
2023-03-07T17:45:42.991Z,11.73
2023-03-07T17:48:11.120Z,12.77
2023-03-07T17:50:41.275Z,18.57
2023-03-07T17:53:09.517Z,13.70
2023-03-07T17:55:38.760Z,17.80
2023-03-07T17:58:09.453Z,16.20
2023-03-07T18:00:39.880Z,15.50
2023-03-07T18:03:08.082Z,13.13
2023-03-07T18:05:36.204Z,19.60
2023-03-07T18:08:04.945Z,19.43
2023-03-07T18:10:33.056Z,20.10
2023-03-07T18:13:01.405Z,13.77
2023-03-07T18:15:29.494Z,12.07
2023-03-07T18:17:59.762Z,13.37
2023-03-07T18:20:29.629Z,12.37
2023-03-07T18:22:57.765Z,10.63
2023-03-07T18:25:25.887Z,9.53
2023-03-07T18:27:54.036Z,12.40
2023-03-07T18:30:22.455Z,11.10
2023-03-07T18:32:50.545Z,9.87
2023-03-07T18:35:20.252Z,11.60
2023-03-07T18:37:48.603Z,10.83
2023-03-07T18:40:19.309Z,13.33
2023-03-07T18:42:47.416Z,12.77
2023-03-07T18:45:15.661Z,9.87
2023-03-07T18:47:44.781Z,10.03
2023-03-07T18:50:13.265Z,9.53
2023-03-07T18:52:43.292Z,8.97
2023-03-07T18:55:11.742Z,8.67
2023-03-07T18:57:40.069Z,9.03
2023-03-07T19:00:11.524Z,9.43
2023-03-07T19:02:40.040Z,10.13
2023-03-07T19:05:10.635Z,10.70
2023-03-07T19:07:38.833Z,11.90
2023-03-07T19:10:10.455Z,17.83
2023-03-07T19:12:38.548Z,21.73
2023-03-07T19:15:08.216Z,12.23
2023-03-07T19:17:41.059Z,10.60
2023-03-07T19:20:11.160Z,10.47
2023-03-07T19:22:39.360Z,11.47
2023-03-07T19:25:10.844Z,11.30
2023-03-07T19:27:39.239Z,10.80
2023-03-07T19:30:11.192Z,10.27
2023-03-07T19:32:39.499Z,12.40
2023-03-07T19:35:08.992Z,13.57
2023-03-07T19:37:37.752Z,11.97
2023-03-07T19:40:09.479Z,12.77
2023-03-07T19:42:37.593Z,13.60
2023-03-07T19:45:07.135Z,13.97
2023-03-07T19:47:35.493Z,12.63
2023-03-07T19:50:03.908Z,14.67
2023-03-07T19:52:31.998Z,13.67
2023-03-07T19:55:00.109Z,13.03
2023-03-07T19:57:29.708Z,15.40
2023-03-07T19:59:57.793Z,13.70
2023-03-07T20:02:26.255Z,18.10
2023-03-07T20:04:55.434Z,18.90
2023-03-07T20:07:23.576Z,18.57
2023-03-07T20:09:53.400Z,17.57
2023-03-07T20:12:21.689Z,15.97
2023-03-07T20:14:51.159Z,15.03
2023-03-07T20:17:19.304Z,13.80
2023-03-07T20:19:50.864Z,15.47
2023-03-07T20:22:20.621Z,13.63
2023-03-07T20:24:51.538Z,12.10
2023-03-07T20:27:21.798Z,12.00
2023-03-07T20:29:52.170Z,11.00
2023-03-07T20:32:20.479Z,10.13
2023-03-07T20:34:52.939Z,12.30
2023-03-07T20:37:21.151Z,8.67
2023-03-07T20:39:49.318Z,10.03
2023-03-07T20:42:17.441Z,8.90
2023-03-07T20:44:45.779Z,8.10
2023-03-07T20:47:15.270Z,7.90
2023-03-07T20:49:43.411Z,7.70
2023-03-07T20:52:12.293Z,6.03
2023-03-07T20:54:40.905Z,4.90
2023-03-07T20:57:09.343Z,4.90
2023-03-07T20:59:37.467Z,5.40
2023-03-07T21:02:07.002Z,4.80
2023-03-07T21:04:36.494Z,4.60
2023-03-07T21:07:05.281Z,3.90
2023-03-07T21:09:33.370Z,4.77
2023-03-07T21:12:01.519Z,4.53
2023-03-07T21:14:29.663Z,5.70
2023-03-07T21:16:57.800Z,6.40
2023-03-07T21:19:26.010Z,3.70
2023-03-07T21:21:55.516Z,4.63
2023-03-07T21:24:23.611Z,4.13
2023-03-07T21:26:51.709Z,5.43
2023-03-07T21:29:19.901Z,3.33
2023-03-07T21:31:48.129Z,3.13
2023-03-07T21:34:16.523Z,1.70
2023-03-07T21:36:45.847Z,1.97
2023-03-07T21:39:15.620Z,3.03
2023-03-07T21:41:43.758Z,2.60
2023-03-07T21:44:12.019Z,1.50
2023-03-07T21:46:40.168Z,2.63
2023-03-07T21:49:08.530Z,3.73
2023-03-07T21:51:36.737Z,2.67
2023-03-07T21:54:05.548Z,8.77
2023-03-07T21:56:35.423Z,3.27
2023-03-07T21:59:03.575Z,4.10
2023-03-07T22:01:31.903Z,3.77
2023-03-07T22:04:00.964Z,5.10
2023-03-07T22:06:29.973Z,3.17
2023-03-07T22:09:00.529Z,5.33
2023-03-07T22:11:28.918Z,4.37
2023-03-07T22:13:58.365Z,3.83
2023-03-07T22:16:26.554Z,3.63
2023-03-07T22:18:56.592Z,4.60
2023-03-07T22:21:26.481Z,4.27
2023-03-07T22:23:57.635Z,5.97
2023-03-07T22:26:26.788Z,6.43
2023-03-07T22:28:55.713Z,4.87
2023-03-07T22:31:26.282Z,4.67
2023-03-07T22:33:54.453Z,3.50
2023-03-07T22:36:22.897Z,4.27
2023-03-07T22:38:56.075Z,6.43
2023-03-07T22:41:25.604Z,4.80
2023-03-07T22:43:53.832Z,5.17
2023-03-07T22:46:23.863Z,6.00
2023-03-07T22:48:56.361Z,5.90
2023-03-07T22:51:26.428Z,5.23
2023-03-07T22:53:55.391Z,4.93
2023-03-07T22:56:26.917Z,4.80
2023-03-07T22:58:55.658Z,4.07
2023-03-07T23:01:27.528Z,3.33
2023-03-07T23:03:57.882Z,4.40
2023-03-07T23:06:29.851Z,4.23
2023-03-07T23:09:00.570Z,5.37
2023-03-07T23:11:31.420Z,7.20
2023-03-07T23:13:59.993Z,6.67
2023-03-07T23:16:31.564Z,8.57
2023-03-07T23:19:01.369Z,7.53
2023-03-07T23:21:33.326Z,7.70
2023-03-07T23:24:03.786Z,7.97
2023-03-07T23:26:35.963Z,4.80
2023-03-07T23:29:04.661Z,6.57
2023-03-07T23:31:38.211Z,6.73
2023-03-07T23:34:10.136Z,6.03
2023-03-07T23:36:38.237Z,6.70
2023-03-07T23:39:08.239Z,5.03
2023-03-07T23:41:36.362Z,5.37
2023-03-07T23:44:05.081Z,4.50
2023-03-07T23:46:35.068Z,5.07
2023-03-07T23:49:03.636Z,6.00
2023-03-07T23:51:31.942Z,5.93
2023-03-07T23:54:00.255Z,6.07
2023-03-07T23:56:28.373Z,5.70
2023-03-07T23:58:56.497Z,3.73
